sensor_id;sensor_type;location;lat;lon;timestamp;P1;durP1;ratioP1;P2;durP2;ratioP2
7997;SDS011;4044;49.814;7.828;2023-11-21T00:01:45;4.00;;;1.93;;
7997;SDS011;4044;49.814;7.828;2023-11-21T00:04:10;3.90;;;2.20;;
7997;SDS011;4044;49.814;7.828;2023-11-21T00:06:36;4.47;;;2.30;;
7997;SDS011;4044;49.814;7.828;2023-11-21T00:09:02;5.37;;;2.00;;
7997;SDS011;4044;49.814;7.828;2023-11-21T00:11:27;3.83;;;2.23;;
7997;SDS011;4044;49.814;7.828;2023-11-21T00:13:54;2.27;;;2.10;;
7997;SDS011;4044;49.814;7.828;2023-11-21T00:16:19;2.40;;;2.20;;
7997;SDS011;4044;49.814;7.828;2023-11-21T00:18:45;3.43;;;2.43;;
7997;SDS011;4044;49.814;7.828;2023-11-21T00:21:11;3.23;;;2.07;;
7997;SDS011;4044;49.814;7.828;2023-11-21T00:23:37;1.93;;;1.77;;
7997;SDS011;4044;49.814;7.828;2023-11-21T00:26:03;2.60;;;1.80;;
7997;SDS011;4044;49.814;7.828;2023-11-21T00:28:29;2.50;;;1.83;;
7997;SDS011;4044;49.814;7.828;2023-11-21T00:30:55;1.73;;;1.50;;
7997;SDS011;4044;49.814;7.828;2023-11-21T00:33:20;2.03;;;1.63;;
7997;SDS011;4044;49.814;7.828;2023-11-21T00:35:46;3.07;;;2.20;;
7997;SDS011;4044;49.814;7.828;2023-11-21T00:38:12;4.67;;;2.00;;
7997;SDS011;4044;49.814;7.828;2023-11-21T00:40:37;2.90;;;1.90;;
7997;SDS011;4044;49.814;7.828;2023-11-21T00:43:03;3.73;;;1.87;;
7997;SDS011;4044;49.814;7.828;2023-11-21T00:45:28;2.43;;;2.00;;
7997;SDS011;4044;49.814;7.828;2023-11-21T00:47:54;2.97;;;1.80;;
7997;SDS011;4044;49.814;7.828;2023-11-21T00:50:20;2.73;;;1.90;;
7997;SDS011;4044;49.814;7.828;2023-11-21T00:52:46;2.53;;;1.83;;
7997;SDS011;4044;49.814;7.828;2023-11-21T00:55:12;1.83;;;1.50;;
7997;SDS011;4044;49.814;7.828;2023-11-21T00:57:38;3.63;;;1.70;;
7997;SDS011;4044;49.814;7.828;2023-11-21T01:00:04;2.00;;;1.90;;
7997;SDS011;4044;49.814;7.828;2023-11-21T01:02:38;2.27;;;1.87;;
7997;SDS011;4044;49.814;7.828;2023-11-21T01:05:04;2.67;;;2.03;;
7997;SDS011;4044;49.814;7.828;2023-11-21T01:07:32;2.50;;;1.93;;
7997;SDS011;4044;49.814;7.828;2023-11-21T01:09:58;2.07;;;1.70;;
7997;SDS011;4044;49.814;7.828;2023-11-21T01:12:24;2.27;;;1.93;;
7997;SDS011;4044;49.814;7.828;2023-11-21T01:14:50;2.07;;;1.97;;
7997;SDS011;4044;49.814;7.828;2023-11-21T01:17:16;4.00;;;2.10;;
7997;SDS011;4044;49.814;7.828;2023-11-21T01:19:43;2.50;;;2.10;;
7997;SDS011;4044;49.814;7.828;2023-11-21T01:22:08;1.90;;;1.80;;
7997;SDS011;4044;49.814;7.828;2023-11-21T01:24:34;2.10;;;2.00;;
7997;SDS011;4044;49.814;7.828;2023-11-21T01:26:59;3.00;;;2.07;;
7997;SDS011;4044;49.814;7.828;2023-11-21T01:29:25;2.30;;;2.10;;
7997;SDS011;4044;49.814;7.828;2023-11-21T01:31:50;2.40;;;2.20;;
7997;SDS011;4044;49.814;7.828;2023-11-21T01:34:16;2.10;;;2.00;;
7997;SDS011;4044;49.814;7.828;2023-11-21T01:36:42;2.30;;;2.10;;
7997;SDS011;4044;49.814;7.828;2023-11-21T01:39:07;2.87;;;2.23;;
7997;SDS011;4044;49.814;7.828;2023-11-21T01:41:33;2.47;;;2.23;;
7997;SDS011;4044;49.814;7.828;2023-11-21T01:44:00;3.43;;;2.17;;
7997;SDS011;4044;49.814;7.828;2023-11-21T01:46:25;2.20;;;2.00;;
7997;SDS011;4044;49.814;7.828;2023-11-21T01:48:51;3.37;;;2.33;;
7997;SDS011;4044;49.814;7.828;2023-11-21T01:51:18;2.93;;;2.63;;
7997;SDS011;4044;49.814;7.828;2023-11-21T01:53:44;2.50;;;2.30;;
7997;SDS011;4044;49.814;7.828;2023-11-21T01:56:11;4.63;;;2.50;;
7997;SDS011;4044;49.814;7.828;2023-11-21T01:58:37;2.60;;;2.40;;
7997;SDS011;4044;49.814;7.828;2023-11-21T02:01:04;3.63;;;2.50;;
7997;SDS011;4044;49.814;7.828;2023-11-21T02:03:30;2.90;;;2.70;;
7997;SDS011;4044;49.814;7.828;2023-11-21T02:05:56;3.13;;;2.40;;
7997;SDS011;4044;49.814;7.828;2023-11-21T02:08:21;3.77;;;2.70;;
7997;SDS011;4044;49.814;7.828;2023-11-21T02:10:47;3.27;;;2.60;;
7997;SDS011;4044;49.814;7.828;2023-11-21T02:13:13;3.93;;;3.10;;
7997;SDS011;4044;49.814;7.828;2023-11-21T02:15:38;5.43;;;3.00;;
7997;SDS011;4044;49.814;7.828;2023-11-21T02:18:04;3.33;;;2.70;;
7997;SDS011;4044;49.814;7.828;2023-11-21T02:20:30;2.80;;;2.60;;
7997;SDS011;4044;49.814;7.828;2023-11-21T02:22:59;5.03;;;2.57;;
7997;SDS011;4044;49.814;7.828;2023-11-21T02:25:32;2.97;;;2.70;;
7997;SDS011;4044;49.814;7.828;2023-11-21T02:27:59;2.83;;;2.63;;
7997;SDS011;4044;49.814;7.828;2023-11-21T02:30:26;5.10;;;2.83;;
7997;SDS011;4044;49.814;7.828;2023-11-21T02:32:56;2.90;;;2.70;;
7997;SDS011;4044;49.814;7.828;2023-11-21T02:35:22;6.17;;;2.53;;
7997;SDS011;4044;49.814;7.828;2023-11-21T02:37:48;3.80;;;2.83;;
7997;SDS011;4044;49.814;7.828;2023-11-21T02:40:14;3.50;;;3.20;;
7997;SDS011;4044;49.814;7.828;2023-11-21T02:42:48;3.93;;;3.37;;
7997;SDS011;4044;49.814;7.828;2023-11-21T02:45:15;4.17;;;2.80;;
7997;SDS011;4044;49.814;7.828;2023-11-21T02:47:42;5.07;;;3.13;;
7997;SDS011;4044;49.814;7.828;2023-11-21T02:50:08;3.00;;;2.20;;
7997;SDS011;4044;49.814;7.828;2023-11-21T02:52:34;3.57;;;2.80;;
7997;SDS011;4044;49.814;7.828;2023-11-21T02:55:03;3.60;;;2.93;;
7997;SDS011;4044;49.814;7.828;2023-11-21T02:57:29;2.73;;;2.53;;
7997;SDS011;4044;49.814;7.828;2023-11-21T02:59:55;3.73;;;3.00;;
7997;SDS011;4044;49.814;7.828;2023-11-21T03:02:21;4.43;;;2.87;;
7997;SDS011;4044;49.814;7.828;2023-11-21T03:04:47;5.60;;;3.33;;
7997;SDS011;4044;49.814;7.828;2023-11-21T03:07:14;7.03;;;3.17;;
7997;SDS011;4044;49.814;7.828;2023-11-21T03:09:40;4.23;;;3.10;;
7997;SDS011;4044;49.814;7.828;2023-11-21T03:12:05;4.40;;;2.97;;
7997;SDS011;4044;49.814;7.828;2023-11-21T03:14:31;3.17;;;2.97;;
7997;SDS011;4044;49.814;7.828;2023-11-21T03:16:56;3.87;;;2.80;;
7997;SDS011;4044;49.814;7.828;2023-11-21T03:19:22;3.60;;;2.73;;
7997;SDS011;4044;49.814;7.828;2023-11-21T03:21:48;3.10;;;2.87;;
7997;SDS011;4044;49.814;7.828;2023-11-21T03:24:14;4.63;;;2.83;;
7997;SDS011;4044;49.814;7.828;2023-11-21T03:26:44;4.50;;;2.90;;
7997;SDS011;4044;49.814;7.828;2023-11-21T03:29:11;3.00;;;2.80;;
7997;SDS011;4044;49.814;7.828;2023-11-21T03:31:37;3.93;;;3.10;;
7997;SDS011;4044;49.814;7.828;2023-11-21T03:34:03;3.40;;;3.10;;
7997;SDS011;4044;49.814;7.828;2023-11-21T03:36:28;3.47;;;3.17;;
7997;SDS011;4044;49.814;7.828;2023-11-21T03:38:54;5.13;;;3.10;;
7997;SDS011;4044;49.814;7.828;2023-11-21T03:41:20;3.63;;;3.30;;
7997;SDS011;4044;49.814;7.828;2023-11-21T03:43:46;3.03;;;2.77;;
7997;SDS011;4044;49.814;7.828;2023-11-21T03:46:11;3.93;;;3.03;;
7997;SDS011;4044;49.814;7.828;2023-11-21T03:48:37;4.87;;;3.20;;
7997;SDS011;4044;49.814;7.828;2023-11-21T03:51:03;4.17;;;3.67;;
7997;SDS011;4044;49.814;7.828;2023-11-21T03:53:29;4.53;;;3.13;;
7997;SDS011;4044;49.814;7.828;2023-11-21T03:55:54;4.33;;;3.10;;
7997;SDS011;4044;49.814;7.828;2023-11-21T03:58:20;5.43;;;2.90;;
7997;SDS011;4044;49.814;7.828;2023-11-21T04:00:46;3.07;;;2.87;;
7997;SDS011;4044;49.814;7.828;2023-11-21T04:03:14;5.20;;;3.33;;
7997;SDS011;4044;49.814;7.828;2023-11-21T04:05:40;4.13;;;3.10;;
7997;SDS011;4044;49.814;7.828;2023-11-21T04:08:06;3.67;;;3.27;;
7997;SDS011;4044;49.814;7.828;2023-11-21T04:10:31;3.70;;;3.20;;
7997;SDS011;4044;49.814;7.828;2023-11-21T04:12:57;3.40;;;3.10;;
7997;SDS011;4044;49.814;7.828;2023-11-21T04:15:23;4.63;;;3.50;;
7997;SDS011;4044;49.814;7.828;2023-11-21T04:17:49;4.90;;;3.20;;
7997;SDS011;4044;49.814;7.828;2023-11-21T04:20:14;4.67;;;3.70;;
7997;SDS011;4044;49.814;7.828;2023-11-21T04:22:40;5.77;;;3.27;;
7997;SDS011;4044;49.814;7.828;2023-11-21T04:25:06;5.13;;;3.67;;
7997;SDS011;4044;49.814;7.828;2023-11-21T04:27:36;3.60;;;3.30;;
7997;SDS011;4044;49.814;7.828;2023-11-21T04:30:03;3.73;;;3.10;;
7997;SDS011;4044;49.814;7.828;2023-11-21T04:32:30;3.83;;;3.10;;
7997;SDS011;4044;49.814;7.828;2023-11-21T04:34:55;5.40;;;2.63;;
7997;SDS011;4044;49.814;7.828;2023-11-21T04:37:21;4.00;;;3.27;;
7997;SDS011;4044;49.814;7.828;2023-11-21T04:39:47;3.20;;;2.70;;
7997;SDS011;4044;49.814;7.828;2023-11-21T04:42:13;4.93;;;3.13;;
7997;SDS011;4044;49.814;7.828;2023-11-21T04:44:38;3.17;;;2.87;;
7997;SDS011;4044;49.814;7.828;2023-11-21T04:47:06;2.93;;;2.40;;
7997;SDS011;4044;49.814;7.828;2023-11-21T04:49:32;3.67;;;2.40;;
7997;SDS011;4044;49.814;7.828;2023-11-21T04:51:58;4.57;;;2.90;;
7997;SDS011;4044;49.814;7.828;2023-11-21T04:54:23;4.30;;;3.17;;
7997;SDS011;4044;49.814;7.828;2023-11-21T04:56:49;4.43;;;2.93;;
7997;SDS011;4044;49.814;7.828;2023-11-21T04:59:15;2.90;;;2.70;;
7997;SDS011;4044;49.814;7.828;2023-11-21T05:01:40;4.23;;;3.03;;
7997;SDS011;4044;49.814;7.828;2023-11-21T05:04:06;6.33;;;3.47;;
7997;SDS011;4044;49.814;7.828;2023-11-21T05:06:33;5.97;;;3.50;;
7997;SDS011;4044;49.814;7.828;2023-11-21T05:08:59;3.03;;;2.80;;
7997;SDS011;4044;49.814;7.828;2023-11-21T05:11:25;2.37;;;2.17;;
7997;SDS011;4044;49.814;7.828;2023-11-21T05:13:51;3.30;;;2.87;;
7997;SDS011;4044;49.814;7.828;2023-11-21T05:16:18;3.17;;;2.27;;
7997;SDS011;4044;49.814;7.828;2023-11-21T05:18:44;2.80;;;2.50;;
7997;SDS011;4044;49.814;7.828;2023-11-21T05:21:10;3.73;;;2.33;;
7997;SDS011;4044;49.814;7.828;2023-11-21T05:23:35;2.80;;;2.60;;
7997;SDS011;4044;49.814;7.828;2023-11-21T05:26:02;2.50;;;2.23;;
7997;SDS011;4044;49.814;7.828;2023-11-21T05:28:28;2.70;;;2.50;;
7997;SDS011;4044;49.814;7.828;2023-11-21T05:30:53;3.80;;;2.60;;
7997;SDS011;4044;49.814;7.828;2023-11-21T05:33:19;3.50;;;2.60;;
7997;SDS011;4044;49.814;7.828;2023-11-21T05:35:45;2.80;;;2.50;;
7997;SDS011;4044;49.814;7.828;2023-11-21T05:38:11;3.13;;;2.10;;
7997;SDS011;4044;49.814;7.828;2023-11-21T05:40:37;2.10;;;2.00;;
7997;SDS011;4044;49.814;7.828;2023-11-21T05:43:02;3.30;;;2.40;;
7997;SDS011;4044;49.814;7.828;2023-11-21T05:45:30;2.53;;;2.30;;
7997;SDS011;4044;49.814;7.828;2023-11-21T05:47:55;2.50;;;2.30;;
7997;SDS011;4044;49.814;7.828;2023-11-21T05:50:22;2.57;;;2.27;;
7997;SDS011;4044;49.814;7.828;2023-11-21T05:52:47;3.17;;;2.60;;
7997;SDS011;4044;49.814;7.828;2023-11-21T05:55:13;3.13;;;2.73;;
7997;SDS011;4044;49.814;7.828;2023-11-21T05:57:39;2.57;;;2.37;;
7997;SDS011;4044;49.814;7.828;2023-11-21T06:00:07;4.33;;;2.97;;
7997;SDS011;4044;49.814;7.828;2023-11-21T06:02:49;5.73;;;3.30;;
7997;SDS011;4044;49.814;7.828;2023-11-21T06:05:17;3.27;;;2.87;;
7997;SDS011;4044;49.814;7.828;2023-11-21T06:07:43;3.40;;;2.80;;
7997;SDS011;4044;49.814;7.828;2023-11-21T06:10:10;3.20;;;2.43;;
7997;SDS011;4044;49.814;7.828;2023-11-21T06:12:38;3.37;;;2.70;;
7997;SDS011;4044;49.814;7.828;2023-11-21T06:15:05;5.53;;;3.27;;
7997;SDS011;4044;49.814;7.828;2023-11-21T06:17:33;4.50;;;3.60;;
7997;SDS011;4044;49.814;7.828;2023-11-21T06:20:02;5.07;;;3.87;;
7997;SDS011;4044;49.814;7.828;2023-11-21T06:22:40;5.57;;;4.00;;
7997;SDS011;4044;49.814;7.828;2023-11-21T06:25:08;4.57;;;4.07;;
7997;SDS011;4044;49.814;7.828;2023-11-21T06:27:38;5.03;;;4.47;;
7997;SDS011;4044;49.814;7.828;2023-11-21T06:30:05;7.60;;;4.53;;
7997;SDS011;4044;49.814;7.828;2023-11-21T06:32:38;4.33;;;4.00;;
7997;SDS011;4044;49.814;7.828;2023-11-21T06:35:05;6.23;;;4.77;;
7997;SDS011;4044;49.814;7.828;2023-11-21T06:37:31;5.70;;;4.70;;
7997;SDS011;4044;49.814;7.828;2023-11-21T06:39:57;5.10;;;3.93;;
7997;SDS011;4044;49.814;7.828;2023-11-21T06:42:24;5.03;;;4.00;;
7997;SDS011;4044;49.814;7.828;2023-11-21T06:44:51;5.67;;;4.27;;
7997;SDS011;4044;49.814;7.828;2023-11-21T06:47:17;6.20;;;3.80;;
7997;SDS011;4044;49.814;7.828;2023-11-21T06:49:43;6.13;;;4.50;;
7997;SDS011;4044;49.814;7.828;2023-11-21T06:52:08;4.13;;;3.57;;
7997;SDS011;4044;49.814;7.828;2023-11-21T06:54:34;5.13;;;4.30;;
7997;SDS011;4044;49.814;7.828;2023-11-21T06:57:01;4.30;;;3.90;;
7997;SDS011;4044;49.814;7.828;2023-11-21T06:59:30;7.80;;;4.77;;
7997;SDS011;4044;49.814;7.828;2023-11-21T07:01:56;9.07;;;4.40;;
7997;SDS011;4044;49.814;7.828;2023-11-21T07:04:22;5.77;;;4.70;;
7997;SDS011;4044;49.814;7.828;2023-11-21T07:06:48;6.30;;;4.87;;
7997;SDS011;4044;49.814;7.828;2023-11-21T07:09:13;6.97;;;5.23;;
7997;SDS011;4044;49.814;7.828;2023-11-21T07:11:40;9.33;;;5.20;;
7997;SDS011;4044;49.814;7.828;2023-11-21T07:14:06;4.67;;;4.27;;
7997;SDS011;4044;49.814;7.828;2023-11-21T07:16:35;13.67;;;5.43;;
7997;SDS011;4044;49.814;7.828;2023-11-21T07:19:04;5.73;;;5.17;;
7997;SDS011;4044;49.814;7.828;2023-11-21T07:21:33;5.37;;;4.43;;
7997;SDS011;4044;49.814;7.828;2023-11-21T07:24:02;6.30;;;4.27;;
7997;SDS011;4044;49.814;7.828;2023-11-21T07:26:29;6.03;;;4.50;;
7997;SDS011;4044;49.814;7.828;2023-11-21T07:28:55;6.43;;;3.93;;
7997;SDS011;4044;49.814;7.828;2023-11-21T07:31:21;5.30;;;3.73;;
7997;SDS011;4044;49.814;7.828;2023-11-21T07:33:47;4.63;;;4.13;;
7997;SDS011;4044;49.814;7.828;2023-11-21T07:36:13;7.23;;;4.10;;
7997;SDS011;4044;49.814;7.828;2023-11-21T07:38:39;4.40;;;3.93;;
7997;SDS011;4044;49.814;7.828;2023-11-21T07:41:05;4.70;;;3.57;;
7997;SDS011;4044;49.814;7.828;2023-11-21T07:43:33;4.97;;;3.30;;
7997;SDS011;4044;49.814;7.828;2023-11-21T07:46:02;4.10;;;3.30;;
7997;SDS011;4044;49.814;7.828;2023-11-21T07:48:31;4.47;;;2.77;;
7997;SDS011;4044;49.814;7.828;2023-11-21T07:50:58;5.67;;;2.90;;
7997;SDS011;4044;49.814;7.828;2023-11-21T07:53:24;6.07;;;3.03;;
7997;SDS011;4044;49.814;7.828;2023-11-21T07:55:56;2.97;;;2.63;;
7997;SDS011;4044;49.814;7.828;2023-11-21T07:58:22;2.63;;;2.33;;
7997;SDS011;4044;49.814;7.828;2023-11-21T08:00:49;3.23;;;2.10;;
7997;SDS011;4044;49.814;7.828;2023-11-21T08:03:15;2.87;;;2.67;;
7997;SDS011;4044;49.814;7.828;2023-11-21T08:05:41;2.40;;;2.20;;
7997;SDS011;4044;49.814;7.828;2023-11-21T08:08:06;3.00;;;2.50;;
7997;SDS011;4044;49.814;7.828;2023-11-21T08:10:32;3.40;;;2.30;;
7997;SDS011;4044;49.814;7.828;2023-11-21T08:12:58;2.83;;;2.10;;
7997;SDS011;4044;49.814;7.828;2023-11-21T08:15:23;4.07;;;2.03;;
7997;SDS011;4044;49.814;7.828;2023-11-21T08:17:49;4.40;;;2.00;;
7997;SDS011;4044;49.814;7.828;2023-11-21T08:20:14;2.17;;;2.07;;
7997;SDS011;4044;49.814;7.828;2023-11-21T08:22:41;6.07;;;1.93;;
7997;SDS011;4044;49.814;7.828;2023-11-21T08:25:07;2.60;;;1.73;;
7997;SDS011;4044;49.814;7.828;2023-11-21T08:27:39;1.70;;;1.60;;
7997;SDS011;4044;49.814;7.828;2023-11-21T08:30:05;2.27;;;2.07;;
7997;SDS011;4044;49.814;7.828;2023-11-21T08:32:32;4.60;;;1.80;;
7997;SDS011;4044;49.814;7.828;2023-11-21T08:34:58;2.10;;;1.83;;
7997;SDS011;4044;49.814;7.828;2023-11-21T08:37:26;2.23;;;1.77;;
7997;SDS011;4044;49.814;7.828;2023-11-21T08:39:54;4.03;;;1.70;;
7997;SDS011;4044;49.814;7.828;2023-11-21T08:42:19;2.63;;;2.20;;
7997;SDS011;4044;49.814;7.828;2023-11-21T08:44:45;3.00;;;2.47;;
7997;SDS011;4044;49.814;7.828;2023-11-21T08:47:10;4.20;;;2.17;;
7997;SDS011;4044;49.814;7.828;2023-11-21T08:49:36;3.13;;;1.87;;
7997;SDS011;4044;49.814;7.828;2023-11-21T08:52:02;3.13;;;2.00;;
7997;SDS011;4044;49.814;7.828;2023-11-21T08:54:30;7.60;;;2.20;;
7997;SDS011;4044;49.814;7.828;2023-11-21T08:56:56;5.47;;;1.87;;
7997;SDS011;4044;49.814;7.828;2023-11-21T08:59:24;6.07;;;2.37;;
7997;SDS011;4044;49.814;7.828;2023-11-21T09:01:49;4.63;;;2.33;;
7997;SDS011;4044;49.814;7.828;2023-11-21T09:04:15;2.17;;;1.90;;
7997;SDS011;4044;49.814;7.828;2023-11-21T09:06:41;4.30;;;2.23;;
7997;SDS011;4044;49.814;7.828;2023-11-21T09:09:06;4.13;;;1.80;;
7997;SDS011;4044;49.814;7.828;2023-11-21T09:11:33;3.77;;;2.33;;
7997;SDS011;4044;49.814;7.828;2023-11-21T09:14:02;3.67;;;2.20;;
7997;SDS011;4044;49.814;7.828;2023-11-21T09:16:30;4.17;;;2.47;;
7997;SDS011;4044;49.814;7.828;2023-11-21T09:18:56;3.67;;;2.40;;
7997;SDS011;4044;49.814;7.828;2023-11-21T09:21:22;3.20;;;2.10;;
7997;SDS011;4044;49.814;7.828;2023-11-21T09:23:48;2.77;;;2.20;;
7997;SDS011;4044;49.814;7.828;2023-11-21T09:26:14;5.43;;;2.10;;
7997;SDS011;4044;49.814;7.828;2023-11-21T09:28:41;3.77;;;2.10;;
7997;SDS011;4044;49.814;7.828;2023-11-21T09:31:11;2.60;;;2.37;;
7997;SDS011;4044;49.814;7.828;2023-11-21T09:33:36;3.83;;;2.50;;
7997;SDS011;4044;49.814;7.828;2023-11-21T09:36:03;3.70;;;2.30;;
7997;SDS011;4044;49.814;7.828;2023-11-21T09:38:29;2.20;;;2.00;;
7997;SDS011;4044;49.814;7.828;2023-11-21T09:40:55;2.97;;;2.67;;
7997;SDS011;4044;49.814;7.828;2023-11-21T09:43:23;2.53;;;2.27;;
7997;SDS011;4044;49.814;7.828;2023-11-21T09:45:56;2.53;;;2.20;;
7997;SDS011;4044;49.814;7.828;2023-11-21T09:48:25;3.23;;;2.10;;
7997;SDS011;4044;49.814;7.828;2023-11-21T09:50:51;3.40;;;2.07;;
7997;SDS011;4044;49.814;7.828;2023-11-21T09:53:19;3.07;;;2.40;;
7997;SDS011;4044;49.814;7.828;2023-11-21T09:55:52;3.50;;;2.13;;
7997;SDS011;4044;49.814;7.828;2023-11-21T09:58:18;5.67;;;2.50;;
7997;SDS011;4044;49.814;7.828;2023-11-21T10:00:45;3.87;;;1.70;;
7997;SDS011;4044;49.814;7.828;2023-11-21T10:03:12;5.13;;;2.10;;
7997;SDS011;4044;49.814;7.828;2023-11-21T10:05:38;2.87;;;1.97;;
7997;SDS011;4044;49.814;7.828;2023-11-21T10:08:08;3.43;;;1.80;;
7997;SDS011;4044;49.814;7.828;2023-11-21T10:10:35;3.43;;;1.80;;
7997;SDS011;4044;49.814;7.828;2023-11-21T10:13:09;2.03;;;1.80;;
7997;SDS011;4044;49.814;7.828;2023-11-21T10:15:37;2.07;;;1.80;;
7997;SDS011;4044;49.814;7.828;2023-11-21T10:18:03;2.10;;;1.90;;
7997;SDS011;4044;49.814;7.828;2023-11-21T10:20:31;3.07;;;1.80;;
7997;SDS011;4044;49.814;7.828;2023-11-21T10:22:58;2.43;;;1.80;;
7997;SDS011;4044;49.814;7.828;2023-11-21T10:25:26;3.13;;;1.50;;
7997;SDS011;4044;49.814;7.828;2023-11-21T10:27:56;2.90;;;1.80;;
7997;SDS011;4044;49.814;7.828;2023-11-21T10:30:32;3.87;;;2.10;;
7997;SDS011;4044;49.814;7.828;2023-11-21T10:33:01;2.83;;;2.17;;
7997;SDS011;4044;49.814;7.828;2023-11-21T10:35:43;4.20;;;2.77;;
7997;SDS011;4044;49.814;7.828;2023-11-21T10:38:15;3.93;;;2.37;;
7997;SDS011;4044;49.814;7.828;2023-11-21T10:40:42;14.43;;;8.97;;
7997;SDS011;4044;49.814;7.828;2023-11-21T10:43:11;4.10;;;2.43;;
7997;SDS011;4044;49.814;7.828;2023-11-21T10:45:40;3.57;;;2.60;;
7997;SDS011;4044;49.814;7.828;2023-11-21T10:48:07;6.53;;;3.30;;
7997;SDS011;4044;49.814;7.828;2023-11-21T10:50:37;3.83;;;2.90;;
7997;SDS011;4044;49.814;7.828;2023-11-21T10:53:05;5.70;;;2.70;;
7997;SDS011;4044;49.814;7.828;2023-11-21T10:55:31;4.17;;;2.30;;
7997;SDS011;4044;49.814;7.828;2023-11-21T10:58:01;5.70;;;3.83;;
7997;SDS011;4044;49.814;7.828;2023-11-21T11:00:29;3.63;;;2.60;;
7997;SDS011;4044;49.814;7.828;2023-11-21T11:02:56;3.37;;;2.37;;
7997;SDS011;4044;49.814;7.828;2023-11-21T11:05:24;2.87;;;2.43;;
7997;SDS011;4044;49.814;7.828;2023-11-21T11:07:52;4.87;;;2.43;;
7997;SDS011;4044;49.814;7.828;2023-11-21T11:10:26;8.80;;;4.70;;
7997;SDS011;4044;49.814;7.828;2023-11-21T11:12:54;4.97;;;2.83;;
7997;SDS011;4044;49.814;7.828;2023-11-21T11:15:20;3.57;;;2.30;;
7997;SDS011;4044;49.814;7.828;2023-11-21T11:17:46;3.67;;;2.40;;
7997;SDS011;4044;49.814;7.828;2023-11-21T11:20:14;3.20;;;2.20;;
7997;SDS011;4044;49.814;7.828;2023-11-21T11:22:44;3.50;;;2.37;;
7997;SDS011;4044;49.814;7.828;2023-11-21T11:25:46;2.70;;;2.20;;
7997;SDS011;4044;49.814;7.828;2023-11-21T11:28:26;3.67;;;2.40;;
7997;SDS011;4044;49.814;7.828;2023-11-21T11:31:04;4.07;;;2.40;;
7997;SDS011;4044;49.814;7.828;2023-11-21T11:36:13;7.67;;;2.67;;
7997;SDS011;4044;49.814;7.828;2023-11-21T11:38:47;5.67;;;2.80;;
7997;SDS011;4044;49.814;7.828;2023-11-21T11:41:19;4.43;;;2.67;;
7997;SDS011;4044;49.814;7.828;2023-11-21T11:43:58;5.40;;;2.90;;
7997;SDS011;4044;49.814;7.828;2023-11-21T11:49:24;3.00;;;2.40;;
7997;SDS011;4044;49.814;7.828;2023-11-21T11:54:55;3.57;;;2.23;;
7997;SDS011;4044;49.814;7.828;2023-11-21T11:57:24;3.53;;;2.28;;
7997;SDS011;4044;49.814;7.828;2023-11-21T12:02:45;4.10;;;2.83;;
7997;SDS011;4044;49.814;7.828;2023-11-21T12:05:18;2.22;;;2.08;;
7997;SDS011;4044;49.814;7.828;2023-11-21T12:07:49;3.85;;;2.88;;
7997;SDS011;4044;49.814;7.828;2023-11-21T12:10:20;2.97;;;2.63;;
7997;SDS011;4044;49.814;7.828;2023-11-21T12:12:50;4.18;;;2.65;;
7997;SDS011;4044;49.814;7.828;2023-11-21T12:15:17;2.67;;;2.25;;
7997;SDS011;4044;49.814;7.828;2023-11-21T12:17:44;4.82;;;2.90;;
7997;SDS011;4044;49.814;7.828;2023-11-21T12:20:10;2.67;;;2.47;;
7997;SDS011;4044;49.814;7.828;2023-11-21T12:22:50;3.13;;;2.45;;
7997;SDS011;4044;49.814;7.828;2023-11-21T12:25:17;5.15;;;2.63;;
7997;SDS011;4044;49.814;7.828;2023-11-21T12:27:46;2.95;;;2.40;;
7997;SDS011;4044;49.814;7.828;2023-11-21T12:30:14;3.97;;;2.85;;
7997;SDS011;4044;49.814;7.828;2023-11-21T12:32:41;3.70;;;2.92;;
7997;SDS011;4044;49.814;7.828;2023-11-21T12:35:11;2.92;;;2.60;;
7997;SDS011;4044;49.814;7.828;2023-11-21T12:37:41;2.97;;;2.67;;
7997;SDS011;4044;49.814;7.828;2023-11-21T12:40:08;3.33;;;2.83;;
7997;SDS011;4044;49.814;7.828;2023-11-21T12:42:37;2.85;;;2.65;;
7997;SDS011;4044;49.814;7.828;2023-11-21T12:45:08;5.28;;;3.90;;
7997;SDS011;4044;49.814;7.828;2023-11-21T12:47:58;3.92;;;2.97;;
7997;SDS011;4044;49.814;7.828;2023-11-21T12:50:32;4.50;;;3.20;;
7997;SDS011;4044;49.814;7.828;2023-11-21T12:53:00;3.95;;;2.90;;
7997;SDS011;4044;49.814;7.828;2023-11-21T12:55:29;3.90;;;2.85;;
7997;SDS011;4044;49.814;7.828;2023-11-21T12:58:01;5.70;;;3.28;;
7997;SDS011;4044;49.814;7.828;2023-11-21T13:03:08;4.13;;;3.60;;
7997;SDS011;4044;49.814;7.828;2023-11-21T13:05:37;3.70;;;3.40;;
7997;SDS011;4044;49.814;7.828;2023-11-21T13:08:05;3.83;;;3.40;;
7997;SDS011;4044;49.814;7.828;2023-11-21T13:10:35;4.97;;;3.63;;
7997;SDS011;4044;49.814;7.828;2023-11-21T13:13:04;4.43;;;4.00;;
7997;SDS011;4044;49.814;7.828;2023-11-21T13:15:38;5.22;;;4.35;;
7997;SDS011;4044;49.814;7.828;2023-11-21T13:18:05;5.80;;;4.72;;
7997;SDS011;4044;49.814;7.828;2023-11-21T13:20:32;5.88;;;4.22;;
7997;SDS011;4044;49.814;7.828;2023-11-21T13:22:58;4.25;;;3.85;;
7997;SDS011;4044;49.814;7.828;2023-11-21T13:25:25;7.75;;;4.13;;
7997;SDS011;4044;49.814;7.828;2023-11-21T13:27:56;5.40;;;4.07;;
7997;SDS011;4044;49.814;7.828;2023-11-21T13:30:23;6.57;;;4.65;;
7997;SDS011;4044;49.814;7.828;2023-11-21T13:32:55;7.43;;;4.60;;
7997;SDS011;4044;49.814;7.828;2023-11-21T13:35:27;8.30;;;5.07;;
7997;SDS011;4044;49.814;7.828;2023-11-21T13:38:03;6.03;;;4.43;;
7997;SDS011;4044;49.814;7.828;2023-11-21T13:40:31;4.70;;;4.30;;
7997;SDS011;4044;49.814;7.828;2023-11-21T13:42:59;5.55;;;4.22;;
7997;SDS011;4044;49.814;7.828;2023-11-21T13:45:29;4.80;;;3.80;;
7997;SDS011;4044;49.814;7.828;2023-11-21T13:47:54;7.80;;;4.20;;
7997;SDS011;4044;49.814;7.828;2023-11-21T13:50:23;7.40;;;3.90;;
7997;SDS011;4044;49.814;7.828;2023-11-21T13:52:54;4.93;;;3.85;;
7997;SDS011;4044;49.814;7.828;2023-11-21T13:55:19;6.70;;;4.03;;
7997;SDS011;4044;49.814;7.828;2023-11-21T13:57:46;4.68;;;3.65;;
7997;SDS011;4044;49.814;7.828;2023-11-21T14:00:16;5.47;;;4.40;;
7997;SDS011;4044;49.814;7.828;2023-11-21T14:03:06;6.45;;;5.00;;
7997;SDS011;4044;49.814;7.828;2023-11-21T14:05:42;8.57;;;5.00;;
7997;SDS011;4044;49.814;7.828;2023-11-21T14:08:09;5.83;;;4.53;;
7997;SDS011;4044;49.814;7.828;2023-11-21T14:10:37;7.80;;;4.70;;
7997;SDS011;4044;49.814;7.828;2023-11-21T14:13:08;8.23;;;5.43;;
7997;SDS011;4044;49.814;7.828;2023-11-21T14:15:35;7.40;;;5.30;;
7997;SDS011;4044;49.814;7.828;2023-11-21T14:18:06;8.47;;;4.90;;
7997;SDS011;4044;49.814;7.828;2023-11-21T14:20:33;9.38;;;4.90;;
7997;SDS011;4044;49.814;7.828;2023-11-21T14:23:01;8.00;;;4.60;;
7997;SDS011;4044;49.814;7.828;2023-11-21T14:25:26;6.47;;;4.85;;
7997;SDS011;4044;49.814;7.828;2023-11-21T14:27:52;6.87;;;4.57;;
7997;SDS011;4044;49.814;7.828;2023-11-21T14:30:17;8.33;;;4.80;;
7997;SDS011;4044;49.814;7.828;2023-11-21T14:32:44;8.60;;;5.10;;
7997;SDS011;4044;49.814;7.828;2023-11-21T14:35:10;7.33;;;5.17;;
7997;SDS011;4044;49.814;7.828;2023-11-21T14:37:35;6.07;;;5.03;;
7997;SDS011;4044;49.814;7.828;2023-11-21T14:40:01;5.47;;;4.72;;
7997;SDS011;4044;49.814;7.828;2023-11-21T14:42:29;6.97;;;5.10;;
7997;SDS011;4044;49.814;7.828;2023-11-21T14:44:55;6.53;;;5.50;;
7997;SDS011;4044;49.814;7.828;2023-11-21T14:47:25;6.97;;;5.80;;
7997;SDS011;4044;49.814;7.828;2023-11-21T14:49:52;7.63;;;5.50;;
7997;SDS011;4044;49.814;7.828;2023-11-21T14:52:20;7.07;;;5.77;;
7997;SDS011;4044;49.814;7.828;2023-11-21T14:54:59;6.80;;;5.53;;
7997;SDS011;4044;49.814;7.828;2023-11-21T14:57:44;8.87;;;6.47;;
7997;SDS011;4044;49.814;7.828;2023-11-21T15:00:14;9.67;;;6.30;;
7997;SDS011;4044;49.814;7.828;2023-11-21T15:03:06;7.80;;;6.10;;
7997;SDS011;4044;49.814;7.828;2023-11-21T15:05:33;7.40;;;6.53;;
7997;SDS011;4044;49.814;7.828;2023-11-21T15:08:00;8.67;;;6.17;;
7997;SDS011;4044;49.814;7.828;2023-11-21T15:10:44;9.47;;;6.20;;
7997;SDS011;4044;49.814;7.828;2023-11-21T15:13:12;8.60;;;6.70;;
7997;SDS011;4044;49.814;7.828;2023-11-21T15:15:39;7.67;;;6.40;;
7997;SDS011;4044;49.814;7.828;2023-11-21T15:18:05;14.80;;;11.10;;
7997;SDS011;4044;49.814;7.828;2023-11-21T15:20:32;9.00;;;6.83;;
7997;SDS011;4044;49.814;7.828;2023-11-21T15:22:57;8.53;;;6.40;;
7997;SDS011;4044;49.814;7.828;2023-11-21T15:25:23;11.30;;;6.43;;
7997;SDS011;4044;49.814;7.828;2023-11-21T15:27:48;8.53;;;6.97;;
7997;SDS011;4044;49.814;7.828;2023-11-21T15:30:15;8.93;;;6.67;;
7997;SDS011;4044;49.814;7.828;2023-11-21T15:32:45;9.30;;;6.70;;